EIN4EC EIDW-LGKR
Flight info
| Callsign | EIN4EC |
|---|---|
| Flight time | N/A |
| Altitude | 35000 |
| Route | ENDEQ1E ENDEQ Q36 ALAVA Z195 MALUD UL975 WAL M16 DOLAS DCT NAVPI DCT DODEN DCT NEGIX DCT DINKU M867 XERUM DCT BAVAX DCT RADIZ DCT GIMIX DCT SABAD DCT NERRA DCT RODON DCT LIMJA N732 PITAS PITAS2P |
| Aircraft | A320/M-SDE3FGHIRWY/LB1 |
Departure
| Time | 2026-04-30 10:27 |
|---|---|
| Airport | Dublin Airport (EIDW) |
Arrival
| Time | N/A |
|---|---|
| Airport | Corfu Ioannis Kapodistrias International Airport (LGKR) |
| Time | Latitude | Longitude | Altitude | Speed | Heading |
|---|---|---|---|---|---|
| 2026-04-30 09:47 | 53.42212 | -6.23728 | 211 ft | 0 kts | 27° |
| 2026-04-30 10:15 | 53.42207 | -6.23732 | 211 ft | 4 kts | 27° |
| 2026-04-30 10:15 | 53.42186 | -6.23751 | 217 ft | 2 kts | 27° |
| 2026-04-30 10:15 | 53.42168 | -6.23758 | 211 ft | 4 kts | 320° |
| 2026-04-30 10:15 | 53.42152 | -6.23727 | 216 ft | 4 kts | 300° |
| 2026-04-30 10:16 | 53.42146 | -6.23707 | 211 ft | 0 kts | 296° |
| 2026-04-30 10:19 | 53.42152 | -6.23725 | 216 ft | 4 kts | 296° |
| 2026-04-30 10:19 | 53.42178 | -6.23787 | 213 ft | 9 kts | 311° |
| 2026-04-30 10:19 | 53.42213 | -6.23874 | 211 ft | 11 kts | 296° |
| 2026-04-30 10:19 | 53.42253 | -6.24008 | 216 ft | 15 kts | 293° |
| 2026-04-30 10:20 | 53.42215 | -6.24168 | 214 ft | 16 kts | 221° |
| 2026-04-30 10:20 | 53.42166 | -6.24459 | 216 ft | 15 kts | 275° |
| 2026-04-30 10:20 | 53.42177 | -6.24659 | 214 ft | 19 kts | 276° |
| 2026-04-30 10:21 | 53.42190 | -6.24902 | 211 ft | 23 kts | 274° |
| 2026-04-30 10:21 | 53.42205 | -6.25188 | 210 ft | 27 kts | 275° |
| 2026-04-30 10:21 | 53.42223 | -6.25518 | 213 ft | 29 kts | 275° |
| 2026-04-30 10:21 | 53.42240 | -6.25809 | 215 ft | 23 kts | 275° |
| 2026-04-30 10:22 | 53.42253 | -6.26064 | 211 ft | 21 kts | 275° |
| 2026-04-30 10:22 | 53.42267 | -6.26314 | 211 ft | 23 kts | 275° |
| 2026-04-30 10:22 | 53.42282 | -6.26576 | 215 ft | 21 kts | 275° |
| 2026-04-30 10:22 | 53.42296 | -6.26831 | 211 ft | 23 kts | 275° |
| 2026-04-30 10:23 | 53.42310 | -6.27087 | 218 ft | 21 kts | 275° |
| 2026-04-30 10:23 | 53.42322 | -6.27322 | 219 ft | 21 kts | 275° |
| 2026-04-30 10:23 | 53.42337 | -6.27579 | 215 ft | 23 kts | 275° |
| 2026-04-30 10:23 | 53.42351 | -6.27832 | 219 ft | 21 kts | 275° |
| 2026-04-30 10:24 | 53.42363 | -6.28057 | 211 ft | 18 kts | 275° |
| 2026-04-30 10:24 | 53.42375 | -6.28272 | 217 ft | 19 kts | 275° |
| 2026-04-30 10:24 | 53.42386 | -6.28475 | 211 ft | 16 kts | 275° |
| 2026-04-30 10:24 | 53.42396 | -6.28655 | 211 ft | 15 kts | 275° |
| 2026-04-30 10:25 | 53.42405 | -6.28813 | 211 ft | 13 kts | 275° |
| 2026-04-30 10:25 | 53.42411 | -6.28951 | 213 ft | 11 kts | 268° |
| 2026-04-30 10:25 | 53.42375 | -6.29060 | 210 ft | 11 kts | 215° |
| 2026-04-30 10:25 | 53.42285 | -6.29070 | 212 ft | 15 kts | 171° |
| 2026-04-30 10:26 | 53.42238 | -6.28918 | 214 ft | 18 kts | 95° |
| 2026-04-30 10:26 | 53.42213 | -6.28473 | 216 ft | 70 kts | 95° |
| 2026-04-30 10:26 | 53.42150 | -6.27316 | 211 ft | 127 kts | 95° |
| 2026-04-30 10:26 | 53.42058 | -6.25608 | 349 ft | 159 kts | 95° |
| 2026-04-30 10:27 | 53.41946 | -6.23687 | 751 ft | 172 kts | 95° |
| 2026-04-30 10:27 | 53.41807 | -6.21632 | 1229 ft | 182 kts | 98° |
| 2026-04-30 10:27 | 53.41664 | -6.19468 | 1682 ft | 194 kts | 98° |
| 2026-04-30 10:27 | 53.41542 | -6.17094 | 1992 ft | 216 kts | 98° |
| 2026-04-30 10:28 | 53.41415 | -6.14457 | 2424 ft | 235 kts | 99° |
| 2026-04-30 10:28 | 53.41272 | -6.11689 | 3231 ft | 240 kts | 100° |
| 2026-04-30 10:28 | 53.41187 | -6.08898 | 3992 ft | 248 kts | 92° |
| 2026-04-30 10:28 | 53.41328 | -6.05968 | 4739 ft | 254 kts | 90° |
| 2026-04-30 10:29 | 53.41502 | -6.02991 | 5483 ft | 259 kts | 89° |
| 2026-04-30 10:29 | 53.41689 | -5.99972 | 6257 ft | 262 kts | 89° |
| 2026-04-30 10:29 | 53.41879 | -5.96917 | 7001 ft | 265 kts | 89° |
| 2026-04-30 10:29 | 53.42005 | -5.94882 | 7481 ft | 266 kts | 89° |
| 2026-04-30 10:30 | 53.42195 | -5.91786 | 8250 ft | 267 kts | 89° |
| 2026-04-30 10:30 | 53.42380 | -5.88672 | 9024 ft | 269 kts | 89° |
| 2026-04-30 10:30 | 53.42563 | -5.85551 | 9799 ft | 270 kts | 89° |
| 2026-04-30 10:30 | 53.42747 | -5.82403 | 10449 ft | 276 kts | 89° |
| 2026-04-30 10:31 | 53.42935 | -5.79059 | 10600 ft | 298 kts | 89° |
| 2026-04-30 10:31 | 53.43132 | -5.75481 | 10866 ft | 315 kts | 89° |
| 2026-04-30 10:31 | 53.43336 | -5.71829 | 11429 ft | 320 kts | 89° |
| 2026-04-30 10:31 | 53.43548 | -5.68092 | 12078 ft | 323 kts | 90° |
| 2026-04-30 10:32 | 53.43763 | -5.64322 | 12721 ft | 327 kts | 90° |
| 2026-04-30 10:32 | 53.43978 | -5.60514 | 13368 ft | 329 kts | 90° |
| 2026-04-30 10:32 | 53.44192 | -5.56671 | 14012 ft | 332 kts | 91° |
| 2026-04-30 10:32 | 53.44362 | -5.52781 | 14380 ft | 340 kts | 94° |
| 2026-04-30 10:33 | 53.44392 | -5.48728 | 14500 ft | 355 kts | 96° |
| 2026-04-30 10:33 | 53.44360 | -5.44514 | 14812 ft | 363 kts | 96° |
| 2026-04-30 10:33 | 53.44298 | -5.40233 | 15288 ft | 367 kts | 97° |
| 2026-04-30 10:33 | 53.44231 | -5.35986 | 15786 ft | 370 kts | 97° |
| 2026-04-30 10:34 | 53.44171 | -5.31637 | 16297 ft | 374 kts | 97° |
| 2026-04-30 10:34 | 53.44119 | -5.27256 | 16810 ft | 377 kts | 96° |
| 2026-04-30 10:34 | 53.44070 | -5.22834 | 17300 ft | 380 kts | 96° |
| 2026-04-30 10:34 | 53.44026 | -5.18376 | 17796 ft | 383 kts | 96° |
| 2026-04-30 10:35 | 53.43982 | -5.13884 | 18256 ft | 387 kts | 96° |
| 2026-04-30 10:35 | 53.43935 | -5.09394 | 18682 ft | 390 kts | 96° |
| 2026-04-30 10:35 | 53.43885 | -5.04821 | 19096 ft | 392 kts | 96° |
| 2026-04-30 10:35 | 53.43834 | -5.00218 | 19511 ft | 395 kts | 96° |
| 2026-04-30 10:36 | 53.43782 | -4.95592 | 19919 ft | 397 kts | 96° |
| 2026-04-30 10:36 | 53.43723 | -4.90950 | 20320 ft | 399 kts | 97° |
| 2026-04-30 10:36 | 53.43660 | -4.86285 | 20713 ft | 401 kts | 97° |
| 2026-04-30 10:36 | 53.43594 | -4.81598 | 21094 ft | 403 kts | 97° |
| 2026-04-30 10:37 | 53.43527 | -4.76938 | 21458 ft | 406 kts | 97° |
| 2026-04-30 10:37 | 53.43459 | -4.72193 | 21805 ft | 408 kts | 97° |
| 2026-04-30 10:37 | 53.43391 | -4.67423 | 22142 ft | 410 kts | 97° |
| 2026-04-30 10:37 | 53.43320 | -4.62639 | 22470 ft | 412 kts | 97° |
| 2026-04-30 10:38 | 53.43246 | -4.57826 | 22813 ft | 414 kts | 97° |
| 2026-04-30 10:38 | 53.43169 | -4.52998 | 23146 ft | 415 kts | 97° |
| 2026-04-30 10:38 | 53.43092 | -4.48144 | 23480 ft | 417 kts | 97° |
| 2026-04-30 10:38 | 53.43013 | -4.43270 | 23798 ft | 419 kts | 97° |
| 2026-04-30 10:39 | 53.42931 | -4.38382 | 24064 ft | 421 kts | 97° |
| 2026-04-30 10:39 | 53.42846 | -4.33462 | 24323 ft | 422 kts | 97° |
| 2026-04-30 10:39 | 53.42758 | -4.28530 | 24581 ft | 424 kts | 96° |
| 2026-04-30 10:39 | 53.42670 | -4.23572 | 24825 ft | 426 kts | 96° |
| 2026-04-30 10:40 | 53.42577 | -4.18596 | 25063 ft | 428 kts | 96° |
| 2026-04-30 10:40 | 53.42481 | -4.13590 | 25299 ft | 430 kts | 96° |
| 2026-04-30 10:40 | 53.42382 | -4.08571 | 25530 ft | 431 kts | 96° |
| 2026-04-30 10:40 | 53.42282 | -4.03545 | 25772 ft | 432 kts | 96° |
| 2026-04-30 10:41 | 53.42179 | -3.98498 | 25999 ft | 434 kts | 96° |
| 2026-04-30 10:41 | 53.42074 | -3.93434 | 26215 ft | 435 kts | 97° |
| 2026-04-30 10:41 | 53.41966 | -3.88353 | 26436 ft | 437 kts | 97° |
| 2026-04-30 10:41 | 53.41856 | -3.83258 | 26643 ft | 438 kts | 97° |
| 2026-04-30 10:42 | 53.41743 | -3.78144 | 26840 ft | 439 kts | 97° |
| 2026-04-30 10:42 | 53.41627 | -3.73017 | 27030 ft | 441 kts | 97° |
| 2026-04-30 10:42 | 53.41508 | -3.67882 | 27219 ft | 442 kts | 97° |
| 2026-04-30 10:42 | 53.41386 | -3.62731 | 27394 ft | 443 kts | 97° |
| 2026-04-30 10:43 | 53.41248 | -3.57590 | 27648 ft | 441 kts | 97° |
| 2026-04-30 10:43 | 53.41059 | -3.52481 | 27974 ft | 438 kts | 98° |
| 2026-04-30 10:43 | 53.40834 | -3.47468 | 28263 ft | 436 kts | 99° |
| 2026-04-30 10:43 | 53.40586 | -3.42419 | 28535 ft | 435 kts | 99° |
| 2026-04-30 10:44 | 53.40330 | -3.37376 | 28799 ft | 434 kts | 99° |
| 2026-04-30 10:44 | 53.40080 | -3.32344 | 29060 ft | 433 kts | 99° |
| 2026-04-30 10:44 | 53.39840 | -3.27314 | 29333 ft | 433 kts | 99° |
| 2026-04-30 10:44 | 53.39606 | -3.22289 | 29598 ft | 432 kts | 99° |
| 2026-04-30 10:45 | 53.39372 | -3.17276 | 29863 ft | 431 kts | 99° |
| 2026-04-30 10:45 | 53.39137 | -3.12269 | 30133 ft | 431 kts | 99° |
| 2026-04-30 10:45 | 53.38925 | -3.07269 | 30359 ft | 430 kts | 98° |
| 2026-04-30 10:45 | 53.38740 | -3.02254 | 30550 ft | 431 kts | 98° |
| 2026-04-30 10:46 | 53.38569 | -2.97246 | 30749 ft | 431 kts | 98° |
| 2026-04-30 10:46 | 53.38397 | -2.92227 | 30968 ft | 431 kts | 98° |
| 2026-04-30 10:46 | 53.38219 | -2.87227 | 31189 ft | 430 kts | 98° |
| 2026-04-30 10:46 | 53.38031 | -2.82233 | 31402 ft | 429 kts | 98° |
| 2026-04-30 10:47 | 53.37836 | -2.77247 | 31635 ft | 429 kts | 98° |
| 2026-04-30 10:47 | 53.37637 | -2.72267 | 31862 ft | 428 kts | 98° |
| 2026-04-30 10:47 | 53.37436 | -2.67295 | 32089 ft | 428 kts | 98° |
| 2026-04-30 10:47 | 53.37234 | -2.62334 | 32321 ft | 427 kts | 98° |
| 2026-04-30 10:48 | 53.37032 | -2.57376 | 32545 ft | 426 kts | 98° |
| 2026-04-30 10:48 | 53.36828 | -2.52424 | 32674 ft | 428 kts | 98° |
| 2026-04-30 10:48 | 53.36618 | -2.47442 | 32816 ft | 429 kts | 98° |
| 2026-04-30 10:48 | 53.36406 | -2.42458 | 32996 ft | 429 kts | 98° |
| 2026-04-30 10:49 | 53.36195 | -2.37540 | 33191 ft | 429 kts | 98° |
| 2026-04-30 10:49 | 53.35980 | -2.32552 | 33399 ft | 429 kts | 98° |
| 2026-04-30 10:49 | 53.35762 | -2.27574 | 33608 ft | 428 kts | 99° |
| 2026-04-30 10:49 | 53.35348 | -2.22668 | 33812 ft | 425 kts | 104° |
| 2026-04-30 10:50 | 53.34848 | -2.17791 | 34019 ft | 424 kts | 104° |
| 2026-04-30 10:50 | 53.34349 | -2.12923 | 34221 ft | 424 kts | 104° |
| 2026-04-30 10:50 | 53.33852 | -2.08067 | 34404 ft | 424 kts | 104° |
| 2026-04-30 10:50 | 53.33352 | -2.03214 | 34566 ft | 423 kts | 103° |
| 2026-04-30 10:51 | 53.32851 | -1.98366 | 34773 ft | 422 kts | 103° |
| 2026-04-30 10:51 | 53.32349 | -1.93532 | 34948 ft | 421 kts | 103° |
| 2026-04-30 10:51 | 53.31846 | -1.88709 | 35111 ft | 421 kts | 103° |
| 2026-04-30 10:51 | 53.31340 | -1.83885 | 35248 ft | 422 kts | 103° |
| 2026-04-30 10:52 | 53.30320 | -1.74193 | 35274 ft | 424 kts | 103° |
| 2026-04-30 10:52 | 53.29293 | -1.64491 | 35274 ft | 424 kts | 103° |
| 2026-04-30 10:53 | 53.28261 | -1.54798 | 35285 ft | 424 kts | 104° |
| 2026-04-30 10:53 | 53.27209 | -1.45086 | 35285 ft | 426 kts | 103° |
| 2026-04-30 10:54 | 53.26146 | -1.35370 | 35286 ft | 426 kts | 103° |
| 2026-04-30 10:54 | 53.25086 | -1.25667 | 35285 ft | 426 kts | 103° |
| 2026-04-30 10:55 | 53.24008 | -1.15905 | 35297 ft | 426 kts | 103° |
| 2026-04-30 10:55 | 53.22920 | -1.06166 | 35297 ft | 426 kts | 104° |
| 2026-04-30 10:56 | 53.21832 | -0.96502 | 35286 ft | 426 kts | 103° |
| 2026-04-30 10:56 | 53.20729 | -0.86825 | 35301 ft | 426 kts | 103° |
| 2026-04-30 10:57 | 53.19625 | -0.77125 | 35309 ft | 426 kts | 103° |
| 2026-04-30 10:57 | 53.18512 | -0.67441 | 35316 ft | 427 kts | 104° |
| 2026-04-30 10:58 | 53.17381 | -0.57710 | 35319 ft | 427 kts | 104° |
| 2026-04-30 10:58 | 53.16244 | -0.47968 | 35321 ft | 427 kts | 104° |
| 2026-04-30 10:59 | 53.15105 | -0.38288 | 35323 ft | 427 kts | 104° |
| 2026-04-30 10:59 | 53.13948 | -0.28564 | 35324 ft | 427 kts | 104° |